CheckWX is a tool to help pilots better visualize weather data.  It is not intended as a substitute for an official pre-flight weather briefing.

23:55:49 UTC

UAOO METAR
Kzyl-Orda Southwest Airport
Kzyl-Orda, Kazakhstan
Current

56 mins ago

UAOO 192300Z 25001MPS 5000 -SN BR OVC026 M03/M03 Q1023 NOSIG RMK QFE755/1007
Observed
Jan-19 @ 23:00 UTC
Wind
  • 250° at 2 KTS
Visibility
5,000 meters
Flight Rules
MVFR
Conditions
Light Snow, Mist
Cloud Levels
  • Overcast at 2,600' AGL
Temperature
-3°C / 27°F
Dewpoint
-3°C / 27°F
Humidity
100%
Altimeter
30.21" Hg
Pressure
1022.92 hPa
Previous

2 hours ago

UAOO 192200Z 26002MPS 5000 BR OVC033 M03/M03 Q1023 NOSIG RMK QFE755/1007
Observed
Jan-19 @ 22:00 UTC
Wind
  • 260° at 4 KTS
Visibility
5,000 meters
Flight Rules
MVFR
Conditions
Mist
Cloud Levels
  • Overcast at 3,300' AGL
Temperature
-3°C / 27°F
Dewpoint
-3°C / 27°F
Humidity
100%
Altimeter
30.21" Hg
Pressure
1022.92 hPa
Previous

3 hours ago

UAOO 192100Z 23002MPS 5000 BR OVC033 M03/M03 Q1023 NOSIG RMK QFE755/1007
Observed
Jan-19 @ 21:00 UTC
Wind
  • 230° at 4 KTS
Visibility
5,000 meters
Flight Rules
MVFR
Conditions
Mist
Cloud Levels
  • Overcast at 3,300' AGL
Temperature
-3°C / 27°F
Dewpoint
-3°C / 27°F
Humidity
100%
Altimeter
30.21" Hg
Pressure
1022.92 hPa